createdAt,value
2018-06-22T00:00:35.895Z,614.20
2018-06-22T00:01:35.837Z,662.30
2018-06-22T00:02:35.814Z,626.20
2018-06-22T00:03:35.797Z,626.20
2018-06-22T00:04:35.757Z,630.60
2018-06-22T00:05:36.705Z,624.20
2018-06-22T00:06:35.709Z,618.30
2018-06-22T00:07:36.155Z,619.30
2018-06-22T00:08:37.215Z,634.60
2018-06-22T00:09:36.294Z,600.20
2018-06-22T00:10:35.610Z,626.30
2018-06-22T00:11:35.573Z,655.10
2018-06-22T00:12:35.554Z,623.70
2018-06-22T00:13:35.528Z,640.30
2018-06-22T00:14:35.501Z,614.10
2018-06-22T00:15:35.472Z,614.90
2018-06-22T00:16:35.456Z,634.00
2018-06-22T00:17:35.426Z,600.80
2018-06-22T00:18:35.394Z,629.20
2018-06-22T00:19:35.371Z,639.40
2018-06-22T00:20:35.347Z,629.10
2018-06-22T00:21:35.313Z,646.30
2018-06-22T00:22:35.300Z,670.60
2018-06-22T00:23:35.264Z,682.40
2018-06-22T00:24:35.243Z,659.50
2018-06-22T00:25:35.214Z,625.30
2018-06-22T00:26:35.181Z,702.70
2018-06-22T00:27:35.165Z,676.60
2018-06-22T00:28:35.135Z,645.10
2018-06-22T00:29:35.106Z,652.50
2018-06-22T00:30:35.079Z,585.90
2018-06-22T00:31:35.058Z,662.20
2018-06-22T00:32:35.046Z,633.70
2018-06-22T00:33:35.002Z,613.80
2018-06-22T00:34:34.979Z,621.90
2018-06-22T00:35:34.956Z,630.80
2018-06-22T00:36:34.926Z,645.40
2018-06-22T00:37:34.897Z,637.30
2018-06-22T00:38:34.868Z,594.00
2018-06-22T00:39:34.852Z,635.00
2018-06-22T00:40:34.829Z,665.90
2018-06-22T00:41:34.798Z,660.70
2018-06-22T00:42:34.773Z,654.00
2018-06-22T00:43:34.749Z,652.60
2018-06-22T00:44:34.725Z,666.20
2018-06-22T00:45:34.686Z,647.30
2018-06-22T00:46:34.664Z,647.10
2018-06-22T00:47:34.639Z,651.40
2018-06-22T00:48:34.618Z,654.50
2018-06-22T00:49:34.598Z,633.20
2018-06-22T00:50:34.558Z,663.50
2018-06-22T00:51:34.530Z,678.20
2018-06-22T00:52:34.508Z,677.30
2018-06-22T00:53:34.477Z,677.20
2018-06-22T00:54:34.458Z,660.60
2018-06-22T00:55:34.431Z,667.50
2018-06-22T00:56:34.408Z,666.20
2018-06-22T00:57:34.372Z,683.10
2018-06-22T00:58:34.361Z,686.60
2018-06-22T00:59:34.323Z,696.30
2018-06-22T01:00:34.300Z,645.90
2018-06-22T01:01:34.275Z,669.40
2018-06-22T01:02:34.249Z,665.90
2018-06-22T01:03:34.220Z,674.20
2018-06-22T01:04:34.198Z,682.10
2018-06-22T01:05:34.162Z,679.70
2018-06-22T01:06:34.143Z,680.50
2018-06-22T01:07:34.114Z,687.40
2018-06-22T01:08:34.089Z,676.90
2018-06-22T01:09:34.068Z,686.40
2018-06-22T01:10:34.037Z,693.20
2018-06-22T01:11:34.009Z,685.80
2018-06-22T01:12:33.984Z,652.00
2018-06-22T01:13:33.961Z,672.50
2018-06-22T01:14:33.931Z,663.70
2018-06-22T01:15:33.910Z,670.30
2018-06-22T01:16:33.885Z,667.10
2018-06-22T01:17:33.848Z,666.80
2018-06-22T01:18:33.823Z,657.30
2018-06-22T01:19:33.800Z,666.60
2018-06-22T01:20:33.771Z,664.80
2018-06-22T01:21:33.753Z,666.70
2018-06-22T01:22:33.721Z,663.60
2018-06-22T01:23:33.701Z,680.60
2018-06-22T01:24:33.669Z,679.40
2018-06-22T01:25:33.644Z,689.80
2018-06-22T01:26:33.616Z,679.10
2018-06-22T01:27:33.593Z,679.80
2018-06-22T01:28:33.563Z,678.30
2018-06-22T01:29:33.555Z,694.00
2018-06-22T01:30:33.516Z,723.60
2018-06-22T01:31:33.500Z,728.70
2018-06-22T01:32:33.468Z,706.40
2018-06-22T01:33:33.433Z,711.50
2018-06-22T01:34:33.407Z,733.30
2018-06-22T01:35:33.383Z,729.00
2018-06-22T01:36:33.360Z,719.80
2018-06-22T01:37:33.331Z,732.40
2018-06-22T01:38:33.319Z,743.30
2018-06-22T01:39:33.282Z,738.80
2018-06-22T01:40:33.253Z,736.70
2018-06-22T01:41:33.229Z,726.60
2018-06-22T01:42:33.199Z,720.30
2018-06-22T01:43:33.171Z,765.90
2018-06-22T01:44:33.151Z,769.60
2018-06-22T01:45:33.119Z,769.30
2018-06-22T01:46:33.092Z,773.50
2018-06-22T01:47:33.076Z,775.90
2018-06-22T01:48:33.041Z,770.70
2018-06-22T01:49:33.018Z,743.10
2018-06-22T01:50:33.249Z,759.30
2018-06-22T01:51:32.969Z,749.30
2018-06-22T01:52:32.932Z,725.50
2018-06-22T01:53:32.915Z,681.50
2018-06-22T01:54:32.891Z,680.70
2018-06-22T01:55:33.071Z,699.40
2018-06-22T01:56:32.830Z,695.20
2018-06-22T01:57:32.801Z,679.60
2018-06-22T01:58:32.778Z,694.70
2018-06-22T01:59:32.755Z,722.30
2018-06-22T02:00:32.727Z,683.60
2018-06-22T02:01:32.703Z,705.00
2018-06-22T02:02:32.678Z,660.40
2018-06-22T02:03:32.698Z,677.70
2018-06-22T02:04:32.631Z,726.50
2018-06-22T02:05:32.597Z,765.40
2018-06-22T02:06:32.582Z,773.20
2018-06-22T02:07:32.547Z,786.90
2018-06-22T02:08:32.523Z,788.10
2018-06-22T02:09:32.489Z,669.30
2018-06-22T02:10:32.466Z,665.00
2018-06-22T02:11:32.446Z,691.00
2018-06-22T02:12:32.414Z,685.80
2018-06-22T02:13:32.391Z,678.40
2018-06-22T02:14:32.363Z,675.10
2018-06-22T02:15:32.356Z,673.80
2018-06-22T02:16:32.310Z,674.30
2018-06-22T02:17:32.282Z,692.90
2018-06-22T02:18:32.267Z,689.10
2018-06-22T02:19:32.226Z,681.50
2018-06-22T02:20:32.203Z,715.90
2018-06-22T02:21:32.181Z,716.10
2018-06-22T02:22:32.147Z,697.60
2018-06-22T02:23:32.124Z,715.50
2018-06-22T02:24:32.117Z,706.00
2018-06-22T02:25:32.078Z,707.10
2018-06-22T02:26:32.047Z,733.30
2018-06-22T02:27:32.024Z,721.90
2018-06-22T02:28:32.077Z,710.10
2018-06-22T02:29:31.965Z,699.60
2018-06-22T02:30:31.954Z,718.80
2018-06-22T02:31:31.912Z,727.70
2018-06-22T02:32:31.888Z,706.50
2018-06-22T02:33:31.866Z,726.50
2018-06-22T02:34:31.834Z,716.50
2018-06-22T02:35:31.814Z,688.80
2018-06-22T02:36:31.786Z,707.50
2018-06-22T02:37:31.759Z,712.20
2018-06-22T02:38:31.729Z,700.20
2018-06-22T02:39:31.711Z,717.30
2018-06-22T02:40:31.682Z,720.50
2018-06-22T02:41:31.652Z,695.30
2018-06-22T02:42:31.632Z,674.10
2018-06-22T02:43:31.597Z,710.40
2018-06-22T02:44:31.575Z,709.70
2018-06-22T02:45:31.550Z,726.60
2018-06-22T02:46:31.520Z,723.40
2018-06-22T02:47:31.499Z,710.70
2018-06-22T02:48:31.474Z,726.80
2018-06-22T02:49:31.441Z,730.50
2018-06-22T02:50:31.422Z,720.10
2018-06-22T02:51:31.398Z,689.70
2018-06-22T02:52:31.363Z,697.70
2018-06-22T02:53:31.343Z,709.80
2018-06-22T02:54:31.319Z,703.20
2018-06-22T02:55:31.281Z,635.40
2018-06-22T02:56:31.260Z,730.40
2018-06-22T02:57:31.304Z,747.50
2018-06-22T02:58:31.203Z,760.50
2018-06-22T02:59:31.188Z,756.90
2018-06-22T03:00:31.157Z,756.30
2018-06-22T03:01:31.128Z,716.20
2018-06-22T03:02:31.107Z,725.30
2018-06-22T03:03:31.078Z,719.20
2018-06-22T03:04:31.048Z,733.20
2018-06-22T03:05:31.029Z,722.90
2018-06-22T03:06:30.999Z,746.40
2018-06-22T03:07:30.973Z,757.00
2018-06-22T03:08:30.954Z,764.80
2018-06-22T03:09:30.914Z,776.50
2018-06-22T03:10:30.895Z,757.40
2018-06-22T03:11:30.866Z,749.60
2018-06-22T03:12:30.839Z,716.30
2018-06-22T03:13:30.830Z,712.80
2018-06-22T03:14:30.793Z,695.80
2018-06-22T03:15:30.756Z,705.00
2018-06-22T03:16:30.742Z,697.90
2018-06-22T03:17:30.714Z,700.70
2018-06-22T03:18:30.684Z,742.50
2018-06-22T03:19:30.677Z,728.20
2018-06-22T03:20:30.640Z,746.20
2018-06-22T03:21:30.605Z,765.60
2018-06-22T03:22:30.579Z,786.00
2018-06-22T03:23:30.558Z,828.40
2018-06-22T03:24:30.524Z,830.70
2018-06-22T03:25:30.497Z,823.30
2018-06-22T03:26:30.473Z,831.80
2018-06-22T03:27:30.450Z,808.90
2018-06-22T03:28:30.421Z,821.20
2018-06-22T03:29:30.400Z,842.00
2018-06-22T03:30:30.368Z,915.30
2018-06-22T03:31:30.358Z,881.40
2018-06-22T03:32:30.321Z,899.60
2018-06-22T03:33:30.290Z,839.90
2018-06-22T03:34:30.264Z,844.40
2018-06-22T03:35:30.244Z,821.90
2018-06-22T03:36:30.208Z,813.30
2018-06-22T03:37:30.190Z,787.10
2018-06-22T03:38:30.162Z,815.30
2018-06-22T03:39:30.185Z,805.40
2018-06-22T03:40:30.106Z,878.60
2018-06-22T03:41:30.077Z,788.00
2018-06-22T03:42:30.059Z,816.80
2018-06-22T03:43:30.026Z,771.20
2018-06-22T03:44:30.000Z,722.20
2018-06-22T03:45:29.978Z,735.60
2018-06-22T03:46:29.951Z,705.40
2018-06-22T03:47:29.928Z,691.00
2018-06-22T03:48:29.900Z,700.10
2018-06-22T03:49:29.867Z,694.70
2018-06-22T03:50:29.862Z,685.40
2018-06-22T03:51:29.820Z,669.50
2018-06-22T03:52:29.797Z,626.50
2018-06-22T03:53:29.784Z,661.10
2018-06-22T03:54:29.741Z,691.20
2018-06-22T03:55:29.710Z,630.50
2018-06-22T03:56:29.682Z,672.90
2018-06-22T03:57:29.663Z,650.90
2018-06-22T03:58:29.639Z,669.00
2018-06-22T03:59:29.625Z,677.50
2018-06-22T04:00:29.584Z,673.30
2018-06-22T04:01:29.551Z,635.20
2018-06-22T04:02:29.531Z,617.60
2018-06-22T04:03:29.558Z,702.70
2018-06-22T04:04:29.474Z,655.60
2018-06-22T04:05:29.456Z,654.70
2018-06-22T04:06:29.424Z,632.80
2018-06-22T04:07:29.423Z,646.80
2018-06-22T04:08:29.422Z,623.00
2018-06-22T04:09:29.399Z,638.20
2018-06-22T04:10:29.320Z,607.30
2018-06-22T04:11:29.294Z,649.50
2018-06-22T04:12:29.271Z,654.60
2018-06-22T04:13:29.244Z,703.40
2018-06-22T04:14:29.210Z,623.80
2018-06-22T04:15:29.192Z,675.60
2018-06-22T04:16:29.163Z,674.30
2018-06-22T04:17:29.145Z,606.10
2018-06-22T04:18:29.448Z,595.70
2018-06-22T04:19:29.080Z,612.50
2018-06-22T04:20:29.054Z,629.80
2018-06-22T04:21:29.033Z,616.90
2018-06-22T04:22:29.004Z,640.40
2018-06-22T04:23:28.980Z,606.10
2018-06-22T04:24:29.000Z,708.00
2018-06-22T04:25:28.927Z,626.80
2018-06-22T04:26:28.900Z,584.20
2018-06-22T04:27:28.877Z,689.70
2018-06-22T04:28:28.844Z,650.40
2018-06-22T04:29:28.835Z,650.30
2018-06-22T04:30:28.798Z,617.10
2018-06-22T04:31:28.766Z,635.00
2018-06-22T04:32:28.741Z,683.30
2018-06-22T04:33:28.718Z,669.70
2018-06-22T04:34:28.684Z,636.10
2018-06-22T04:35:28.668Z,579.50
2018-06-22T04:36:28.640Z,676.30
2018-06-22T04:37:28.609Z,604.00
2018-06-22T04:38:28.587Z,631.40
2018-06-22T04:39:28.569Z,654.00
2018-06-22T04:40:28.537Z,604.60
2018-06-22T04:41:28.511Z,625.90
2018-06-22T04:42:28.483Z,638.90
2018-06-22T04:43:28.452Z,544.30
2018-06-22T04:44:28.429Z,634.60
2018-06-22T04:45:28.412Z,530.80
2018-06-22T04:46:28.374Z,613.00
2018-06-22T04:47:28.354Z,604.70
2018-06-22T04:48:28.333Z,665.40
2018-06-22T04:49:28.297Z,639.70
2018-06-22T04:50:28.278Z,639.60
2018-06-22T04:51:28.246Z,648.20
2018-06-22T04:52:28.218Z,598.30
2018-06-22T04:53:28.194Z,626.60
2018-06-22T04:54:28.185Z,495.50
2018-06-22T04:55:28.148Z,587.20
2018-06-22T04:56:28.121Z,560.00
2018-06-22T04:57:28.089Z,631.20
2018-06-22T04:58:28.061Z,579.90
2018-06-22T04:59:28.038Z,601.80
2018-06-22T05:00:28.013Z,584.40
2018-06-22T05:01:27.987Z,599.70
2018-06-22T05:02:27.963Z,639.20
2018-06-22T05:03:27.928Z,581.60
2018-06-22T05:04:27.903Z,571.80
2018-06-22T05:05:27.881Z,593.10
2018-06-22T05:06:27.850Z,617.30
2018-06-22T05:07:27.832Z,561.70
2018-06-22T05:08:27.801Z,581.20
2018-06-22T05:09:27.778Z,587.30
2018-06-22T05:10:27.748Z,528.60
2018-06-22T05:11:27.727Z,556.50
2018-06-22T05:12:27.699Z,571.50
2018-06-22T05:13:27.675Z,541.30
2018-06-22T05:14:27.648Z,518.00
2018-06-22T05:15:27.618Z,487.40
2018-06-22T05:16:27.591Z,457.90
2018-06-22T05:17:27.565Z,457.20
2018-06-22T05:18:27.541Z,578.40
2018-06-22T05:19:27.511Z,475.00
2018-06-22T05:20:27.489Z,494.00
2018-06-22T05:21:27.457Z,507.20
2018-06-22T05:22:27.434Z,509.50
2018-06-22T05:23:27.411Z,528.20
2018-06-22T05:24:27.385Z,529.00
2018-06-22T05:25:27.358Z,549.00
2018-06-22T05:26:27.329Z,611.40
2018-06-22T05:27:27.303Z,602.00
2018-06-22T05:28:27.276Z,593.20
2018-06-22T05:29:27.246Z,519.50
2018-06-22T05:30:27.252Z,502.50
2018-06-22T05:31:27.203Z,567.40
2018-06-22T05:32:27.213Z,538.00
2018-06-22T05:33:27.189Z,579.50
2018-06-22T05:34:27.151Z,542.40
2018-06-22T05:35:27.096Z,542.60
2018-06-22T05:36:27.112Z,545.60
2018-06-22T05:37:27.063Z,617.20
2018-06-22T05:38:27.042Z,597.10
2018-06-22T05:39:26.997Z,561.30
2018-06-22T05:40:26.966Z,494.60
2018-06-22T05:41:26.990Z,558.60
2018-06-22T05:42:26.912Z,525.80
2018-06-22T05:43:26.913Z,579.40
2018-06-22T05:44:26.875Z,457.10
2018-06-22T05:45:26.850Z,474.80
2018-06-22T05:46:26.830Z,585.80
2018-06-22T05:47:26.793Z,569.70
2018-06-22T05:48:26.775Z,595.10
2018-06-22T05:49:26.724Z,562.60
2018-06-22T05:50:26.704Z,461.40
2018-06-22T05:51:26.680Z,522.00
2018-06-22T05:52:26.650Z,509.70
2018-06-22T05:53:26.628Z,504.80
2018-06-22T05:54:26.597Z,585.30
2018-06-22T05:55:26.590Z,507.30
2018-06-22T05:56:26.611Z,553.60
2018-06-22T05:57:26.515Z,544.00
2018-06-22T05:58:26.497Z,567.80
2018-06-22T05:59:26.465Z,485.30
2018-06-22T06:00:26.464Z,455.50
2018-06-22T06:01:26.412Z,470.50
2018-06-22T06:02:26.386Z,513.50
2018-06-22T06:03:26.382Z,474.50
2018-06-22T06:04:26.337Z,482.20
2018-06-22T06:05:26.308Z,492.40
2018-06-22T06:06:26.281Z,447.20
2018-06-22T06:07:26.261Z,497.30
2018-06-22T06:08:26.230Z,528.10
2018-06-22T06:09:26.207Z,580.70
2018-06-22T06:10:26.180Z,512.00
2018-06-22T06:11:26.170Z,524.80
2018-06-22T06:12:26.209Z,528.70
2018-06-22T06:13:26.100Z,536.00
2018-06-22T06:14:26.101Z,579.60
2018-06-22T06:15:26.064Z,582.20
2018-06-22T06:16:26.038Z,673.50
2018-06-22T06:17:26.000Z,658.40
2018-06-22T06:18:25.988Z,816.20
2018-06-22T06:19:25.964Z,831.90
2018-06-22T06:20:25.947Z,839.90
2018-06-22T06:21:25.964Z,910.30
2018-06-22T06:22:25.924Z,783.90
2018-06-22T06:23:25.865Z,737.40
2018-06-22T06:24:25.829Z,825.80
2018-06-22T06:25:25.810Z,777.70
2018-06-22T06:26:25.785Z,778.30
2018-06-22T06:27:25.755Z,821.80
2018-06-22T06:28:25.713Z,735.20
2018-06-22T06:29:25.680Z,675.70
2018-06-22T06:30:25.654Z,650.40
2018-06-22T06:31:25.645Z,641.30
2018-06-22T06:32:25.606Z,687.40
2018-06-22T06:33:25.592Z,606.60
2018-06-22T06:34:25.587Z,620.60
2018-06-22T06:35:25.556Z,624.30
2018-06-22T06:36:25.519Z,669.10
2018-06-22T06:37:25.475Z,644.80
2018-06-22T06:38:25.449Z,656.90
2018-06-22T06:39:25.422Z,665.70
2018-06-22T06:40:25.400Z,669.30
2018-06-22T06:41:25.364Z,648.30
2018-06-22T06:42:25.505Z,658.90
2018-06-22T06:43:25.317Z,686.40
2018-06-22T06:44:25.292Z,656.10
2018-06-22T06:45:25.268Z,645.40
2018-06-22T06:46:25.241Z,698.90
2018-06-22T06:47:25.217Z,647.40
2018-06-22T06:48:25.187Z,643.80
2018-06-22T06:49:25.165Z,613.30
2018-06-22T06:50:25.138Z,655.10
2018-06-22T06:51:25.110Z,641.70
2018-06-22T06:52:25.081Z,615.30
2018-06-22T06:53:25.057Z,592.00
2018-06-22T06:54:25.029Z,605.10
2018-06-22T06:55:25.004Z,654.70
2018-06-22T06:56:24.983Z,630.60
2018-06-22T06:57:24.951Z,603.90
2018-06-22T06:58:24.925Z,636.70
2018-06-22T06:59:24.899Z,641.00
2018-06-22T07:00:24.881Z,628.60
2018-06-22T07:01:24.849Z,658.00
2018-06-22T07:02:24.827Z,702.20
2018-06-22T07:03:24.800Z,663.40
2018-06-22T07:04:24.769Z,684.20
2018-06-22T07:05:24.746Z,695.00
2018-06-22T07:06:24.739Z,701.60
2018-06-22T07:07:24.694Z,744.60
2018-06-22T07:08:24.709Z,742.20
2018-06-22T07:09:24.638Z,803.90
2018-06-22T07:10:24.610Z,847.70
2018-06-22T07:11:24.582Z,812.50
2018-06-22T07:12:24.554Z,688.30
2018-06-22T07:13:24.535Z,804.70
2018-06-22T07:14:24.565Z,746.60
2018-06-22T07:15:24.480Z,789.60
2018-06-22T07:16:24.459Z,797.90
2018-06-22T07:17:24.426Z,822.10
2018-06-22T07:18:24.404Z,873.90
2018-06-22T07:19:24.376Z,851.00
2018-06-22T07:20:24.353Z,811.40
2018-06-22T07:21:24.327Z,835.40
2018-06-22T07:22:24.295Z,823.60
2018-06-22T07:23:24.322Z,833.30
2018-06-22T07:24:24.241Z,846.50
2018-06-22T07:25:24.221Z,767.00
2018-06-22T07:26:24.194Z,795.80
2018-06-22T07:27:24.159Z,836.40
2018-06-22T07:28:24.136Z,763.30
2018-06-22T07:29:24.115Z,765.60
2018-06-22T07:30:24.080Z,751.10
2018-06-22T07:31:24.063Z,736.50
2018-06-22T07:32:24.036Z,683.10
2018-06-22T07:33:24.004Z,697.20
2018-06-22T07:34:23.975Z,697.00
2018-06-22T07:35:23.958Z,804.00
2018-06-22T07:36:23.932Z,809.10
2018-06-22T07:37:23.899Z,824.40
2018-06-22T07:38:23.878Z,766.90
2018-06-22T07:39:23.848Z,705.60
2018-06-22T07:40:23.821Z,764.30
2018-06-22T07:41:23.795Z,709.20
2018-06-22T07:42:23.775Z,707.70
2018-06-22T07:43:23.742Z,743.20
2018-06-22T07:44:23.721Z,607.40
2018-06-22T07:45:23.688Z,744.30
2018-06-22T07:46:23.664Z,698.20
2018-06-22T07:47:23.640Z,717.80
2018-06-22T07:48:23.610Z,675.50
2018-06-22T07:49:23.648Z,759.60
2018-06-22T07:50:23.565Z,738.40
2018-06-22T07:51:23.528Z,741.30
2018-06-22T07:52:23.507Z,658.20
2018-06-22T07:53:23.483Z,756.00
2018-06-22T07:54:23.448Z,836.40
2018-06-22T07:55:23.437Z,798.60
2018-06-22T07:56:23.405Z,778.40
2018-06-22T07:57:23.375Z,843.70
2018-06-22T07:58:23.354Z,802.70
2018-06-22T07:59:23.319Z,812.70
2018-06-22T08:00:23.295Z,877.60
2018-06-22T08:01:23.272Z,815.00
2018-06-22T08:02:23.245Z,768.60
2018-06-22T08:03:23.216Z,802.60
2018-06-22T08:04:23.203Z,831.10
2018-06-22T08:05:23.163Z,830.10
2018-06-22T08:06:23.270Z,823.20
2018-06-22T08:07:23.117Z,800.50
2018-06-22T08:08:23.088Z,790.80
2018-06-22T08:09:23.064Z,870.40
2018-06-22T08:10:23.035Z,811.60
2018-06-22T08:11:23.012Z,765.60
2018-06-22T08:12:22.980Z,776.40
2018-06-22T08:13:22.967Z,788.30
2018-06-22T08:14:22.925Z,778.10
2018-06-22T08:15:22.906Z,869.50
2018-06-22T08:16:22.871Z,861.50
2018-06-22T08:17:22.855Z,833.10
2018-06-22T08:18:22.823Z,908.00
2018-06-22T08:19:22.797Z,902.20
2018-06-22T08:20:22.773Z,849.30
2018-06-22T08:21:22.742Z,875.30
2018-06-22T08:22:22.722Z,911.10
2018-06-22T08:23:22.688Z,901.60
2018-06-22T08:24:22.671Z,838.00
2018-06-22T08:25:22.640Z,852.70
2018-06-22T08:26:22.609Z,894.50
2018-06-22T08:27:22.587Z,918.50
2018-06-22T08:28:22.556Z,834.20
2018-06-22T08:29:22.540Z,817.00
2018-06-22T08:30:22.506Z,859.70
2018-06-22T08:31:22.485Z,888.10
2018-06-22T08:32:22.460Z,851.20
2018-06-22T08:33:22.426Z,849.70
2018-06-22T08:34:22.443Z,888.00
2018-06-22T08:35:22.376Z,841.30
2018-06-22T08:36:22.355Z,791.80
2018-06-22T08:37:22.342Z,798.30
2018-06-22T08:38:22.306Z,844.10
2018-06-22T08:39:22.277Z,798.10
2018-06-22T08:40:22.250Z,818.30
2018-06-22T08:41:22.218Z,824.10
2018-06-22T08:42:22.204Z,800.50
2018-06-22T08:43:22.163Z,853.80
2018-06-22T08:44:22.235Z,832.20
2018-06-22T08:45:22.117Z,812.40
2018-06-22T08:46:22.091Z,763.30
2018-06-22T08:47:22.066Z,776.10
2018-06-22T08:48:22.033Z,774.40
2018-06-22T08:49:22.013Z,760.60
2018-06-22T08:50:21.984Z,797.50
2018-06-22T08:51:21.961Z,785.50
2018-06-22T08:52:21.937Z,810.20
2018-06-22T08:53:21.912Z,767.50
2018-06-22T08:54:21.954Z,876.20
2018-06-22T08:55:21.868Z,818.50
2018-06-22T08:56:21.828Z,778.10
2018-06-22T08:57:21.812Z,762.10
2018-06-22T08:58:21.817Z,748.20
2018-06-22T08:59:21.752Z,763.10
2018-06-22T09:00:21.726Z,715.70
2018-06-22T09:01:21.758Z,714.10
2018-06-22T09:02:21.670Z,753.60
2018-06-22T09:03:21.649Z,758.30
2018-06-22T09:04:21.618Z,760.00
2018-06-22T09:05:21.595Z,761.50
2018-06-22T09:06:21.571Z,758.80
2018-06-22T09:07:21.538Z,746.10
2018-06-22T09:08:21.556Z,729.20
2018-06-22T09:09:21.494Z,813.40
2018-06-22T09:10:21.463Z,771.30
2018-06-22T09:11:21.444Z,727.10
2018-06-22T09:12:21.411Z,699.30
2018-06-22T09:13:21.384Z,730.80
2018-06-22T09:14:21.365Z,670.40
2018-06-22T09:15:21.339Z,702.20
2018-06-22T09:16:21.314Z,678.00
2018-06-22T09:17:21.277Z,674.50
2018-06-22T09:18:21.253Z,677.70
2018-06-22T09:19:21.234Z,699.10
2018-06-22T09:20:21.207Z,658.50
2018-06-22T09:21:21.199Z,648.90
2018-06-22T09:22:21.175Z,631.20
2018-06-22T09:23:21.128Z,648.70
2018-06-22T09:24:21.109Z,659.00
2018-06-22T09:25:21.100Z,703.00
2018-06-22T09:26:21.056Z,632.90
2018-06-22T09:27:21.025Z,625.80
2018-06-22T09:28:21.004Z,633.40
2018-06-22T09:29:20.974Z,606.50
2018-06-22T09:30:20.959Z,628.20
2018-06-22T09:31:20.925Z,635.70
2018-06-22T09:32:20.892Z,613.90
2018-06-22T09:33:20.873Z,554.30
2018-06-22T09:34:20.846Z,572.30
2018-06-22T09:35:20.814Z,593.50
2018-06-22T09:36:20.798Z,575.40
2018-06-22T09:37:20.768Z,540.00
2018-06-22T09:38:20.735Z,562.30
2018-06-22T09:39:20.724Z,603.50
2018-06-22T09:40:20.689Z,517.90
2018-06-22T09:41:20.659Z,516.90
2018-06-22T09:42:20.638Z,499.00
2018-06-22T09:43:20.612Z,543.50
2018-06-22T09:44:20.581Z,507.60
2018-06-22T09:45:20.555Z,477.90
2018-06-22T09:46:20.536Z,556.80
2018-06-22T09:47:20.504Z,500.90
2018-06-22T09:48:20.527Z,424.50
2018-06-22T09:49:20.453Z,451.50
2018-06-22T09:50:20.429Z,460.40
2018-06-22T09:51:20.407Z,546.90
2018-06-22T09:52:20.373Z,492.00
2018-06-22T09:53:20.357Z,485.50
2018-06-22T09:54:20.330Z,444.40
2018-06-22T09:55:20.304Z,523.60
2018-06-22T09:56:20.279Z,458.20
2018-06-22T09:57:20.245Z,528.00
2018-06-22T09:58:20.225Z,489.30
2018-06-22T09:59:20.194Z,373.10
2018-06-22T10:00:20.176Z,492.70
2018-06-22T10:01:20.149Z,775.90
2018-06-22T10:02:20.120Z,827.50
2018-06-22T10:03:20.099Z,788.60
2018-06-22T10:04:20.065Z,697.80
2018-06-22T10:05:20.047Z,794.00
2018-06-22T10:06:20.021Z,701.80
2018-06-22T10:07:20.001Z,780.80
2018-06-22T10:08:19.987Z,639.90
2018-06-22T10:09:19.936Z,657.70
2018-06-22T10:10:19.912Z,613.10
2018-06-22T10:11:19.896Z,605.90
2018-06-22T10:12:19.864Z,568.30
2018-06-22T10:13:19.855Z,569.70
2018-06-22T10:14:19.810Z,570.00
2018-06-22T10:15:19.791Z,568.60
2018-06-22T10:16:19.759Z,580.60
2018-06-22T10:17:19.733Z,623.80
2018-06-22T10:18:19.712Z,777.00
2018-06-22T10:19:19.702Z,893.80
2018-06-22T10:20:19.662Z,817.80
2018-06-22T10:21:19.627Z,728.30
2018-06-22T10:22:19.606Z,609.00
2018-06-22T10:23:19.585Z,709.70
2018-06-22T10:24:19.579Z,843.90
2018-06-22T10:25:19.538Z,796.50
2018-06-22T10:26:19.507Z,862.10
2018-06-22T10:27:19.538Z,812.00
2018-06-22T10:28:19.455Z,790.10
2018-06-22T10:29:19.421Z,831.90
2018-06-22T10:30:19.405Z,831.90
2018-06-22T10:31:19.372Z,822.40
2018-06-22T10:32:19.350Z,761.90
2018-06-22T10:33:19.322Z,811.80
2018-06-22T10:34:19.292Z,784.40
2018-06-22T10:35:19.267Z,829.40
2018-06-22T10:36:19.241Z,757.80
2018-06-22T10:37:19.223Z,755.70
2018-06-22T10:38:19.189Z,725.00
2018-06-22T10:39:19.221Z,729.80
2018-06-22T10:40:19.148Z,797.40
2018-06-22T10:41:19.110Z,768.10
2018-06-22T10:42:19.088Z,741.20
2018-06-22T10:43:19.059Z,692.70
2018-06-22T10:44:19.031Z,759.30
2018-06-22T10:45:19.016Z,746.40
2018-06-22T10:46:18.983Z,696.10
2018-06-22T10:47:18.983Z,729.60
2018-06-22T10:48:18.926Z,742.90
2018-06-22T10:49:18.910Z,773.00
2018-06-22T10:50:18.897Z,762.40
2018-06-22T10:51:18.850Z,791.00
2018-06-22T10:52:18.833Z,812.80
2018-06-22T10:53:18.802Z,747.10
2018-06-22T10:54:18.775Z,754.00
2018-06-22T10:55:18.746Z,902.80
2018-06-22T10:56:18.719Z,741.90
2018-06-22T10:57:18.701Z,778.40
2018-06-22T10:58:18.671Z,794.80
2018-06-22T10:59:18.659Z,766.80
2018-06-22T11:00:18.624Z,739.10
2018-06-22T11:01:18.591Z,775.80
2018-06-22T11:02:18.566Z,762.80
2018-06-22T11:03:18.538Z,732.30
2018-06-22T11:04:18.515Z,774.90
2018-06-22T11:05:18.512Z,729.60
2018-06-22T11:06:18.461Z,744.80
2018-06-22T11:07:18.442Z,673.90
2018-06-22T11:08:18.408Z,679.70
2018-06-22T11:09:18.388Z,599.90
2018-06-22T11:10:18.363Z,652.00
2018-06-22T11:11:18.329Z,519.80
2018-06-22T11:12:18.308Z,472.20
2018-06-22T11:13:18.284Z,518.80
2018-06-22T11:14:18.255Z,427.10
2018-06-22T11:15:18.241Z,665.10
2018-06-22T11:16:18.202Z,446.20
2018-06-22T11:17:18.257Z,554.80
2018-06-22T11:18:18.152Z,443.40
2018-06-22T11:19:18.130Z,455.30
2018-06-22T11:20:18.101Z,514.80
2018-06-22T11:21:18.131Z,436.60
2018-06-22T11:22:18.055Z,491.00
2018-06-22T11:23:18.019Z,467.80
2018-06-22T11:24:18.004Z,480.60
2018-06-22T11:25:17.969Z,450.20
2018-06-22T11:26:17.948Z,574.50
2018-06-22T11:27:17.995Z,542.60
2018-06-22T11:28:17.896Z,404.70
2018-06-22T11:29:17.867Z,425.40
2018-06-22T11:30:17.849Z,386.10
2018-06-22T11:31:17.815Z,433.00
2018-06-22T11:32:17.848Z,348.80
2018-06-22T11:33:17.768Z,365.60
2018-06-22T11:34:17.740Z,354.00
2018-06-22T11:35:17.720Z,396.40
2018-06-22T11:36:17.770Z,347.80
2018-06-22T11:37:17.662Z,655.80
2018-06-22T11:38:17.638Z,738.30
2018-06-22T11:39:17.610Z,694.30
2018-06-22T11:40:17.583Z,542.20
2018-06-22T11:41:17.609Z,567.50
2018-06-22T11:42:17.559Z,527.10
2018-06-22T11:43:17.509Z,677.00
2018-06-22T11:44:17.489Z,744.80
2018-06-22T11:45:17.458Z,671.10
2018-06-22T11:46:17.435Z,599.80
2018-06-22T11:47:17.408Z,603.70
2018-06-22T11:48:17.402Z,568.60
2018-06-22T11:49:17.362Z,643.60
2018-06-22T11:50:17.333Z,596.10
2018-06-22T11:51:17.304Z,654.40
2018-06-22T11:52:17.284Z,679.00
2018-06-22T11:53:17.266Z,680.90
2018-06-22T11:54:17.229Z,651.60
2018-06-22T11:55:17.205Z,600.90
2018-06-22T11:56:17.178Z,622.20
2018-06-22T11:57:17.165Z,609.20
2018-06-22T11:58:17.128Z,557.70
2018-06-22T11:59:17.101Z,621.10
2018-06-22T12:00:17.080Z,730.90
2018-06-22T12:01:17.052Z,956.00
2018-06-22T12:02:17.033Z,999.90
2018-06-22T12:03:17.002Z,991.50
2018-06-22T12:04:17.007Z,999.90
2018-06-22T12:05:16.973Z,950.10
2018-06-22T12:06:16.948Z,992.50
2018-06-22T12:07:16.916Z,999.90
2018-06-22T12:08:16.922Z,999.90
2018-06-22T12:09:16.867Z,999.90
2018-06-22T12:10:16.839Z,999.90
2018-06-22T12:11:16.865Z,999.90
2018-06-22T12:12:16.770Z,999.90
2018-06-22T12:13:16.761Z,999.90
2018-06-22T12:14:16.724Z,999.90
2018-06-22T12:15:16.709Z,999.90
2018-06-22T12:16:16.690Z,999.90
2018-06-22T12:17:16.642Z,999.90
2018-06-22T12:18:16.615Z,999.90
2018-06-22T12:19:16.657Z,999.90
2018-06-22T12:20:16.560Z,999.90
2018-06-22T12:21:16.562Z,999.90
2018-06-22T12:22:16.513Z,999.90
2018-06-22T12:23:16.489Z,999.90
2018-06-22T12:24:16.467Z,999.90
2018-06-22T12:25:16.432Z,999.90
2018-06-22T12:26:16.409Z,999.90
2018-06-22T12:27:16.383Z,998.20
2018-06-22T12:28:16.354Z,999.90